Terminal Aerodrome Forecast
Issued by NWS Pittsburgh, PA

Current Version | Previous Version | Graphics & Text | Print | Product List | Glossary On
Versions: 1 2 3 4 5 6 7 8 9 10 11 12 13 14 15 16 17 18 19 20 21 22 23 24 25 26 27 28 29 30 31 32 33 34 35 36 37 38
792
FTUS41 KPBZ 150917 AAA
TAFPIT
TAF AMD
KPIT 150917Z 1509/1612 24010KT P6SM BKN014 WS020/23040KT
     FM152100 24008KT 4SM -RA BR OVC008
     FM160000 22008KT 2SM RA BR OVC007
     FM161100 30014G20KT 5SM -RA OVC012=

USA.gov is the U.S. government's official web portal to all federal, state and local government web resources and services.